createdAt,value
2022-08-23T00:00:45.998Z,98892.50
2022-08-23T00:03:27.359Z,98894.53
2022-08-23T00:05:55.551Z,98884.75
2022-08-23T00:08:27.722Z,98890.78
2022-08-23T00:10:58.817Z,98894.16
2022-08-23T00:13:47.986Z,98887.91
2022-08-23T00:16:18.997Z,98890.22
2022-08-23T00:18:51.668Z,98885.06
2022-08-23T00:21:20.182Z,98889.72
2022-08-23T00:23:57.833Z,98892.41
2022-08-23T00:26:27.733Z,98898.41
2022-08-23T00:28:56.072Z,98895.88
2022-08-23T00:31:24.173Z,98882.50
2022-08-23T00:34:06.352Z,98886.47
2022-08-23T00:36:34.625Z,98885.16
2022-08-23T00:39:03.690Z,98887.13
2022-08-23T00:41:32.797Z,98876.72
2022-08-23T00:44:18.645Z,98887.00
2022-08-23T00:47:08.677Z,98880.66
2022-08-23T00:49:44.382Z,98886.84
2022-08-23T00:52:20.517Z,98892.91
2022-08-23T00:54:49.055Z,98888.78
2022-08-23T00:57:20.749Z,98887.44
2022-08-23T00:59:51.326Z,98893.84
2022-08-23T01:02:19.585Z,98899.06
2022-08-23T01:04:53.166Z,98906.22
2022-08-23T01:07:34.054Z,98901.53
2022-08-23T01:10:06.648Z,98910.09
2022-08-23T01:12:40.757Z,98911.53
2022-08-23T01:15:13.126Z,98904.66
2022-08-23T01:17:45.212Z,98903.50
2022-08-23T01:20:18.350Z,98905.03
2022-08-23T01:22:52.181Z,98905.34
2022-08-23T01:25:25.202Z,98903.88
2022-08-23T01:27:53.817Z,98906.97
2022-08-23T01:30:25.573Z,98911.19
2022-08-23T01:32:56.313Z,98902.19
2022-08-23T01:35:38.070Z,98895.38
2022-08-23T01:38:07.389Z,98901.44
2022-08-23T01:40:38.406Z,98899.72
2022-08-23T01:43:07.515Z,98903.72
2022-08-23T01:45:36.837Z,98904.09
2022-08-23T01:48:07.875Z,98897.38
2022-08-23T01:53:05.576Z,98891.00
2022-08-23T01:55:34.747Z,98900.59
2022-08-23T01:58:08.606Z,98891.53
2022-08-23T02:00:42.614Z,98898.78
2022-08-23T02:03:12.717Z,98904.16
2022-08-23T02:05:41.327Z,98895.72
2022-08-23T02:08:27.634Z,98905.13
2022-08-23T02:10:56.280Z,98902.78
2022-08-23T02:13:26.481Z,98895.09
2022-08-23T02:15:55.316Z,98905.00
2022-08-23T02:18:23.525Z,98889.53
2022-08-23T02:20:53.971Z,98894.78
2022-08-23T02:23:23.476Z,98894.78
2022-08-23T02:25:53.713Z,98904.72
2022-08-23T02:28:23.986Z,98895.13
2022-08-23T02:30:54.285Z,98904.03
2022-08-23T02:33:22.871Z,98898.84
2022-08-23T02:38:36.826Z,98900.66
2022-08-23T02:41:05.360Z,98902.53
2022-08-23T02:43:36.482Z,98904.72
2022-08-23T02:46:11.216Z,98897.16
2022-08-23T02:48:40.005Z,98904.22
2022-08-23T02:51:10.680Z,98907.03
2022-08-23T02:53:39.178Z,98904.84
2022-08-23T02:56:17.018Z,98906.34
2022-08-23T02:58:54.423Z,98898.44
2022-08-23T03:01:27.266Z,98913.19
2022-08-23T03:03:55.769Z,98912.78
2022-08-23T03:06:26.575Z,98913.94
2022-08-23T03:08:56.041Z,98920.50
2022-08-23T03:11:25.539Z,98912.13
2022-08-23T03:13:58.080Z,98912.34
2022-08-23T03:16:28.109Z,98921.03
2022-08-23T03:18:57.283Z,98906.34
2022-08-23T03:21:29.393Z,98906.50
2022-08-23T03:23:59.101Z,98905.34
2022-08-23T03:26:27.712Z,98905.91
2022-08-23T03:28:56.828Z,98901.47
2022-08-23T03:31:25.653Z,98907.06
2022-08-23T03:33:59.758Z,98902.47
2022-08-23T03:36:28.443Z,98909.75
2022-08-23T03:38:57.594Z,98909.53
2022-08-23T03:41:26.388Z,98909.47
2022-08-23T03:43:57.602Z,98915.19
2022-08-23T03:46:26.107Z,98912.00
2022-08-23T03:48:56.699Z,98921.00
2022-08-23T03:51:29.359Z,98923.69
2022-08-23T03:53:57.803Z,98940.13
2022-08-23T03:56:27.854Z,98937.91
2022-08-23T03:58:57.398Z,98937.91
2022-08-23T04:01:28.835Z,98930.22
2022-08-23T04:03:59.426Z,98934.38
2022-08-23T04:06:33.212Z,98943.31
2022-08-23T04:09:04.458Z,98940.78
2022-08-23T04:11:33.405Z,98933.81
2022-08-23T04:14:01.754Z,98947.09
2022-08-23T04:16:37.593Z,98932.13
2022-08-23T04:19:10.207Z,98928.91
2022-08-23T04:21:43.355Z,98935.03
2022-08-23T04:24:14.752Z,98948.47
2022-08-23T04:26:43.583Z,98947.22
2022-08-23T04:29:23.023Z,98947.72
2022-08-23T04:32:05.247Z,98946.97
2022-08-23T04:34:36.351Z,98946.34
2022-08-23T04:37:09.162Z,98953.94
2022-08-23T04:39:59.227Z,98954.84
2022-08-23T04:42:26.594Z,98960.56
2022-08-23T04:44:55.623Z,98968.03
2022-08-23T04:47:24.113Z,98959.50
2022-08-23T04:49:52.861Z,98963.34
2022-08-23T04:52:23.008Z,98967.66
2022-08-23T04:54:51.551Z,98970.66
2022-08-23T04:57:19.844Z,98975.75
2022-08-23T04:59:50.923Z,98980.38
2022-08-23T05:02:20.949Z,98980.38
2022-08-23T05:04:49.667Z,98978.38
2022-08-23T05:07:17.832Z,98984.38
2022-08-23T05:09:48.073Z,98980.53
2022-08-23T05:12:16.454Z,98982.81
2022-08-23T05:14:47.846Z,98983.94
2022-08-23T05:17:16.685Z,98985.88
2022-08-23T05:19:47.264Z,98980.09
2022-08-23T05:22:15.847Z,98984.72
2022-08-23T05:24:44.101Z,99001.84
2022-08-23T05:27:15.239Z,98999.03
2022-08-23T05:29:43.728Z,99000.47
2022-08-23T05:32:14.904Z,99002.19
2022-08-23T05:34:45.269Z,99001.63
2022-08-23T05:37:13.883Z,99003.72
2022-08-23T05:39:42.731Z,99009.16
2022-08-23T05:42:15.130Z,99013.47
2022-08-23T05:44:44.396Z,99012.91
2022-08-23T05:47:15.790Z,99012.16
2022-08-23T05:49:44.428Z,99011.44
2022-08-23T05:52:15.653Z,99021.22
2022-08-23T05:54:44.962Z,99019.19
2022-08-23T05:57:14.940Z,99018.38
2022-08-23T05:59:46.326Z,99015.69
2022-08-23T06:02:14.898Z,99018.50
2022-08-23T06:04:43.097Z,99020.84
2022-08-23T06:07:11.889Z,99026.47
2022-08-23T06:09:40.465Z,99018.47
2022-08-23T06:12:09.191Z,99025.63
2022-08-23T06:14:39.425Z,99023.22
2022-08-23T06:17:07.939Z,99028.47
2022-08-23T06:19:37.429Z,99025.56
2022-08-23T06:22:05.861Z,99027.13
2022-08-23T06:24:34.241Z,99029.19
2022-08-23T06:27:02.425Z,99026.75
2022-08-23T06:29:30.830Z,99032.81
2022-08-23T06:32:00.517Z,99035.78
2022-08-23T06:34:33.746Z,99036.22
2022-08-23T06:37:06.405Z,99032.34
2022-08-23T06:39:37.641Z,99038.94
2022-08-23T06:42:34.465Z,99030.72
2022-08-23T06:44:56.969Z,99043.13
2022-08-23T06:47:28.722Z,99043.13
2022-08-23T06:49:58.491Z,99042.28
2022-08-23T06:52:30.198Z,99040.50
2022-08-23T06:54:58.757Z,99041.78
2022-08-23T06:57:28.594Z,99041.44
2022-08-23T06:59:59.081Z,99038.28
2022-08-23T07:02:29.916Z,99039.13
2022-08-23T07:04:58.499Z,99039.94
2022-08-23T07:07:39.549Z,99034.41
2022-08-23T07:10:13.189Z,99027.38
2022-08-23T07:12:43.322Z,99037.31
2022-08-23T07:15:14.867Z,99044.88
2022-08-23T07:17:44.985Z,99043.88
2022-08-23T07:20:13.286Z,99041.69
2022-08-23T07:22:42.081Z,99045.38
2022-08-23T07:25:10.455Z,99052.47
2022-08-23T07:27:39.596Z,99052.16
2022-08-23T07:30:09.420Z,99049.47
2022-08-23T07:32:41.110Z,99058.91
2022-08-23T07:35:11.664Z,99061.25
2022-08-23T07:37:40.177Z,99064.13
2022-08-23T07:40:10.451Z,99060.75
2022-08-23T07:42:49.397Z,99063.44
2022-08-23T07:45:18.878Z,99061.06
2022-08-23T07:47:52.116Z,99064.59
2022-08-23T07:50:22.886Z,99060.97
2022-08-23T07:52:51.790Z,99061.50
2022-08-23T07:55:20.626Z,99069.59
2022-08-23T07:57:49.520Z,99067.34
2022-08-23T08:00:20.907Z,99062.44
2022-08-23T08:02:49.556Z,99067.56
2022-08-23T08:05:21.536Z,99063.34
2022-08-23T08:07:56.613Z,99069.88
2022-08-23T08:10:25.100Z,99071.28
2022-08-23T08:12:55.012Z,99073.19
2022-08-23T08:15:24.199Z,99075.44
2022-08-23T08:17:53.159Z,99073.31
2022-08-23T08:20:22.742Z,99079.38
2022-08-23T08:22:58.310Z,99081.59
2022-08-23T08:25:27.016Z,99078.84
2022-08-23T08:27:55.368Z,99086.88
2022-08-23T08:30:27.006Z,99088.50
2022-08-23T08:32:56.112Z,99087.16
2022-08-23T08:35:24.830Z,99088.75
2022-08-23T08:37:55.277Z,99085.53
2022-08-23T08:40:32.819Z,99088.16
2022-08-23T08:43:13.856Z,99094.19
2022-08-23T08:45:58.661Z,99096.59
2022-08-23T08:48:30.613Z,99092.78
2022-08-23T08:51:06.501Z,99089.84
2022-08-23T08:53:41.286Z,99092.31
2022-08-23T08:56:21.142Z,99093.00
2022-08-23T08:58:52.632Z,99099.47
2022-08-23T09:01:23.838Z,99094.97
2022-08-23T09:03:53.051Z,99085.19
2022-08-23T09:06:26.322Z,99080.94
2022-08-23T09:09:14.578Z,99079.88
2022-08-23T09:11:55.132Z,99083.69
2022-08-23T09:14:54.912Z,99077.97
2022-08-23T09:17:34.214Z,99074.91
2022-08-23T09:20:07.357Z,99070.75
2022-08-23T09:22:44.833Z,99078.69
2022-08-23T09:25:17.187Z,99078.88
2022-08-23T09:27:47.210Z,99078.91
2022-08-23T09:30:18.478Z,99081.22
2022-08-23T09:32:50.341Z,99076.84
2022-08-23T09:35:21.236Z,99074.28
2022-08-23T09:37:59.297Z,99081.59
2022-08-23T09:40:33.973Z,99070.59
2022-08-23T09:43:14.403Z,99079.69
2022-08-23T09:45:57.374Z,99076.03
2022-08-23T09:48:40.107Z,99070.88
2022-08-23T09:51:18.565Z,99066.75
2022-08-23T09:53:53.307Z,99067.41
2022-08-23T09:56:28.438Z,99062.41
2022-08-23T09:58:57.791Z,99069.94
2022-08-23T10:01:30.189Z,99068.28
2022-08-23T10:04:13.090Z,99062.59
2022-08-23T10:06:43.418Z,99055.25
2022-08-23T10:09:25.683Z,99060.94
2022-08-23T10:12:00.634Z,99047.00
2022-08-23T10:14:31.221Z,99049.69
2022-08-23T10:17:11.264Z,99055.03
2022-08-23T10:19:47.741Z,99051.28
2022-08-23T10:22:21.299Z,99049.09
2022-08-23T10:24:58.857Z,99050.78
2022-08-23T10:28:05.093Z,99048.16
2022-08-23T10:30:42.913Z,99044.97
2022-08-23T10:33:18.514Z,99041.56
2022-08-23T10:35:58.864Z,99052.19
2022-08-23T10:38:42.604Z,99038.13
2022-08-23T10:41:41.645Z,99038.44
2022-08-23T10:44:25.849Z,99041.84
2022-08-23T10:47:16.570Z,99036.78
2022-08-23T10:49:49.248Z,99033.41
2022-08-23T10:52:23.671Z,99036.34
2022-08-23T10:55:06.034Z,99036.03
2022-08-23T10:57:37.561Z,99035.28
2022-08-23T11:00:13.908Z,99030.69
2022-08-23T11:02:50.806Z,99023.94
2022-08-23T11:05:24.150Z,99029.63
2022-08-23T11:08:02.423Z,99023.88
2022-08-23T11:10:55.680Z,99028.03
2022-08-23T11:13:28.273Z,99023.50
2022-08-23T11:16:02.013Z,99020.22
2022-08-23T11:18:41.337Z,99017.97
2022-08-23T11:21:33.758Z,99015.28
2022-08-23T11:24:33.751Z,99020.06
2022-08-23T11:27:06.712Z,99012.50
2022-08-23T11:29:43.615Z,99014.06
2022-08-23T11:32:39.663Z,99022.09
2022-08-23T11:35:30.543Z,99015.84
2022-08-23T11:38:04.095Z,99009.22
2022-08-23T11:40:56.889Z,99007.47
2022-08-23T11:43:30.331Z,99005.06
2022-08-23T11:46:33.067Z,99000.88
2022-08-23T11:49:33.229Z,99001.69
2022-08-23T11:52:17.808Z,98991.28
2022-08-23T11:55:06.404Z,99000.16
2022-08-23T11:57:52.074Z,99006.44
2022-08-23T12:00:29.142Z,98994.88
2022-08-23T12:03:07.063Z,98991.97
2022-08-23T12:06:08.211Z,98992.81
2022-08-23T12:09:02.147Z,98994.91
2022-08-23T12:12:15.330Z,98995.00
2022-08-23T12:14:55.103Z,98986.72
2022-08-23T12:18:01.269Z,98985.34
2022-08-23T12:20:35.154Z,98980.09
2022-08-23T12:23:15.092Z,98979.56
2022-08-23T12:25:44.356Z,98976.59
2022-08-23T12:28:31.636Z,98983.13
2022-08-23T12:31:13.430Z,98981.69
2022-08-23T12:33:54.573Z,98985.34
2022-08-23T12:36:34.418Z,98984.50
2022-08-23T12:39:24.050Z,98981.41
2022-08-23T12:41:57.027Z,98977.56
2022-08-23T12:44:27.393Z,98969.88
2022-08-23T12:46:56.224Z,98974.41
2022-08-23T12:49:29.959Z,98965.56
2022-08-23T12:52:01.357Z,98955.81
2022-08-23T12:54:41.737Z,98973.06
2022-08-23T12:57:13.837Z,98974.22
2022-08-23T12:59:48.753Z,98973.59
2022-08-23T13:02:25.094Z,98959.78
2022-08-23T13:04:58.789Z,98960.22
2022-08-23T13:07:28.161Z,98962.09
2022-08-23T13:09:58.378Z,98959.06
2022-08-23T13:12:28.585Z,98960.84
2022-08-23T13:15:01.522Z,98950.28
2022-08-23T13:17:39.983Z,98955.16
2022-08-23T13:20:26.906Z,98954.16
2022-08-23T13:23:01.806Z,98953.44
2022-08-23T13:25:34.409Z,98948.63
2022-08-23T13:28:05.283Z,98942.56
2022-08-23T13:30:36.275Z,98953.72
2022-08-23T13:33:26.643Z,98954.31
2022-08-23T13:36:12.894Z,98944.00
2022-08-23T13:38:43.058Z,98947.72
2022-08-23T13:41:28.259Z,98961.19
2022-08-23T13:43:57.348Z,98947.72
2022-08-23T13:46:28.017Z,98957.06
2022-08-23T13:48:59.992Z,98934.69
2022-08-23T13:51:32.077Z,98942.09
2022-08-23T13:54:02.686Z,98939.91
2022-08-23T13:56:38.109Z,98944.31
2022-08-23T13:59:18.001Z,98939.81
2022-08-23T14:01:47.755Z,98938.66
2022-08-23T14:04:16.224Z,98934.81
2022-08-23T14:06:44.630Z,98938.16
2022-08-23T14:09:17.640Z,98932.44
2022-08-23T14:11:59.535Z,98942.78
2022-08-23T14:14:32.189Z,98939.06
2022-08-23T14:17:02.795Z,98934.22
2022-08-23T14:22:22.526Z,98940.66
2022-08-23T14:24:51.015Z,98934.16
2022-08-23T14:27:21.022Z,98943.97
2022-08-23T14:29:49.529Z,98941.84
2022-08-23T14:32:17.801Z,98935.22
2022-08-23T14:34:46.241Z,98934.38
2022-08-23T14:38:02.492Z,98928.44
2022-08-23T14:40:02.941Z,98937.63
2022-08-23T14:42:32.813Z,98936.81
2022-08-23T14:45:01.169Z,98932.34
2022-08-23T14:47:29.854Z,98938.34
2022-08-23T14:49:58.281Z,98929.53
2022-08-23T14:52:26.830Z,98918.31
2022-08-23T14:54:55.110Z,98932.59
2022-08-23T14:57:23.263Z,98923.56
2022-08-23T14:59:52.963Z,98922.09
2022-08-23T15:02:25.820Z,98920.38
2022-08-23T15:04:54.823Z,98920.78
2022-08-23T15:07:23.497Z,98920.81
2022-08-23T15:09:55.641Z,98919.19
2022-08-23T15:15:16.788Z,98917.00
2022-08-23T15:17:52.867Z,98922.78
2022-08-23T15:20:21.871Z,98925.00
2022-08-23T15:22:55.517Z,98921.47
2022-08-23T15:25:25.947Z,98924.44
2022-08-23T15:27:54.611Z,98921.56
2022-08-23T15:30:28.090Z,98923.34
2022-08-23T15:33:01.281Z,98921.50
2022-08-23T15:35:32.849Z,98913.34
2022-08-23T15:38:02.218Z,98913.63
2022-08-23T15:40:30.824Z,98915.59
2022-08-23T15:43:03.395Z,98910.34
2022-08-23T15:45:34.975Z,98906.84
2022-08-23T15:48:07.675Z,98909.56
2022-08-23T15:50:37.646Z,98904.09
2022-08-23T15:53:05.899Z,98894.34
2022-08-23T15:55:35.154Z,98909.22
2022-08-23T15:58:03.679Z,98903.63
2022-08-23T16:00:33.626Z,98906.88
2022-08-23T16:03:19.144Z,98905.53
2022-08-23T16:05:51.080Z,98903.81
2022-08-23T16:08:23.992Z,98902.28
2022-08-23T16:10:52.738Z,98899.59
2022-08-23T16:13:22.065Z,98911.97
2022-08-23T16:15:55.828Z,98905.03
2022-08-23T16:18:26.452Z,98906.34
2022-08-23T16:20:54.661Z,98902.41
2022-08-23T16:23:23.549Z,98907.63
2022-08-23T16:25:51.969Z,98898.09
2022-08-23T16:28:20.188Z,98898.84
2022-08-23T16:30:48.578Z,98902.53
2022-08-23T16:33:18.750Z,98902.59
2022-08-23T16:35:48.324Z,98899.59
2022-08-23T16:38:16.622Z,98902.09
2022-08-23T16:40:46.326Z,98901.53
2022-08-23T16:43:17.051Z,98908.00
2022-08-23T16:45:47.557Z,98908.88
2022-08-23T16:48:18.021Z,98903.91
2022-08-23T16:50:46.589Z,98910.13
2022-08-23T16:53:15.948Z,98910.22
2022-08-23T16:55:44.759Z,98915.06
2022-08-23T16:58:14.217Z,98901.78
2022-08-23T17:00:43.412Z,98912.94
2022-08-23T17:03:11.700Z,98910.88
2022-08-23T17:05:41.923Z,98913.13
2022-08-23T17:08:12.037Z,98911.72
2022-08-23T17:10:44.626Z,98904.34
2022-08-23T17:13:14.010Z,98910.09
2022-08-23T17:15:42.575Z,98912.16
2022-08-23T17:18:12.817Z,98915.06
2022-08-23T17:20:43.252Z,98914.81
2022-08-23T17:23:14.398Z,98918.28
2022-08-23T17:25:48.161Z,98918.44
2022-08-23T17:28:17.251Z,98919.78
2022-08-23T17:30:46.173Z,98921.13
2022-08-23T17:33:15.526Z,98916.72
2022-08-23T17:35:45.699Z,98930.69
2022-08-23T17:38:16.812Z,98921.84
2022-08-23T17:40:45.545Z,98918.53
2022-08-23T17:43:15.026Z,98920.13
2022-08-23T17:45:47.349Z,98931.44
2022-08-23T17:48:17.709Z,98927.31
2022-08-23T17:50:48.405Z,98931.78
2022-08-23T17:53:18.896Z,98927.00
2022-08-23T17:55:48.131Z,98936.13
2022-08-23T17:58:16.840Z,98936.72
2022-08-23T18:00:45.332Z,98943.66
2022-08-23T18:03:14.813Z,98942.75
2022-08-23T18:05:46.457Z,98943.06
2022-08-23T18:08:17.968Z,98944.38
2022-08-23T18:10:47.087Z,98950.94
2022-08-23T18:13:15.328Z,98951.75
2022-08-23T18:15:44.754Z,98953.81
2022-08-23T18:18:14.837Z,98952.03
2022-08-23T18:20:45.099Z,98961.22
2022-08-23T18:23:16.032Z,98956.91
2022-08-23T18:25:51.978Z,98952.59
2022-08-23T18:28:20.717Z,98956.91
2022-08-23T18:30:51.818Z,98959.38
2022-08-23T18:33:25.241Z,98961.09
2022-08-23T18:35:59.872Z,98964.34
2022-08-23T18:38:28.049Z,98966.09
2022-08-23T18:40:58.277Z,98959.78
2022-08-23T18:43:30.758Z,98969.34
2022-08-23T18:46:06.558Z,98972.31
2022-08-23T18:48:35.321Z,98969.84
2022-08-23T18:51:06.270Z,98969.03
2022-08-23T18:53:46.694Z,98979.41
2022-08-23T18:56:18.205Z,98978.38
2022-08-23T18:58:47.767Z,98988.84
2022-08-23T19:01:26.831Z,98988.75
2022-08-23T19:04:02.297Z,98985.97
2022-08-23T19:06:31.905Z,98992.19
2022-08-23T19:09:01.156Z,99000.88
2022-08-23T19:11:32.540Z,99002.38
2022-08-23T19:14:01.864Z,99008.44
2022-08-23T19:16:37.117Z,99004.88
2022-08-23T19:19:06.764Z,99003.66
2022-08-23T19:21:35.003Z,99008.31
2022-08-23T19:24:04.470Z,99021.34
2022-08-23T19:26:36.398Z,99014.63
2022-08-23T19:29:10.832Z,99010.88
2022-08-23T19:31:43.349Z,99016.16
2022-08-23T19:34:11.800Z,99015.50
2022-08-23T19:36:47.037Z,99024.66
2022-08-23T19:39:19.613Z,99014.66
2022-08-23T19:41:49.700Z,99021.72
2022-08-23T19:44:18.134Z,99024.09
2022-08-23T19:46:48.577Z,99026.75
2022-08-23T19:49:17.506Z,99032.19
2022-08-23T19:51:46.372Z,99046.47
2022-08-23T19:54:14.697Z,99039.38
2022-08-23T19:56:48.591Z,99045.78
2022-08-23T19:59:23.245Z,99050.31
2022-08-23T20:01:53.265Z,99052.19
2022-08-23T20:04:23.637Z,99050.72
2022-08-23T20:06:52.242Z,99050.75
2022-08-23T20:09:23.873Z,99057.53
2022-08-23T20:11:54.068Z,99059.13
2022-08-23T20:14:24.936Z,99061.13
2022-08-23T20:16:54.429Z,99069.19
2022-08-23T20:19:25.764Z,99078.19
2022-08-23T20:22:16.360Z,99071.50
2022-08-23T20:24:51.311Z,99072.81
2022-08-23T20:27:25.415Z,99078.81
2022-08-23T20:30:01.989Z,99082.25
2022-08-23T20:32:31.393Z,99067.41
2022-08-23T20:35:00.991Z,99073.66
2022-08-23T20:37:29.253Z,99084.69
2022-08-23T20:39:57.770Z,99080.41
2022-08-23T20:42:26.278Z,99079.66
2022-08-23T20:44:54.508Z,99082.44
2022-08-23T20:47:25.164Z,99084.94
2022-08-23T20:49:53.595Z,99079.75
2022-08-23T20:52:22.202Z,99080.34
2022-08-23T20:54:51.036Z,99083.44
2022-08-23T20:57:19.685Z,99083.94
2022-08-23T20:59:48.220Z,99080.53
2022-08-23T21:02:17.302Z,99081.38
2022-08-23T21:04:47.495Z,99084.91
2022-08-23T21:07:16.384Z,99088.88
2022-08-23T21:09:45.017Z,99090.03
2022-08-23T21:12:13.932Z,99101.59
2022-08-23T21:14:42.321Z,99102.69
2022-08-23T21:17:11.457Z,99104.03
2022-08-23T21:19:39.984Z,99097.38
2022-08-23T21:22:09.899Z,99102.41
2022-08-23T21:24:38.773Z,99100.72
2022-08-23T21:27:09.958Z,99103.72
2022-08-23T21:29:42.847Z,99097.31
2022-08-23T21:32:11.368Z,99097.44
2022-08-23T21:34:43.378Z,99098.47
2022-08-23T21:37:14.139Z,99100.19
2022-08-23T21:39:44.374Z,99105.41
2022-08-23T21:42:15.573Z,99097.59
2022-08-23T21:44:46.981Z,99108.78
2022-08-23T21:47:15.654Z,99112.44
2022-08-23T21:49:45.125Z,99110.09
2022-08-23T21:52:17.279Z,99106.28
2022-08-23T21:54:45.552Z,99114.88
2022-08-23T21:57:17.503Z,99109.91
2022-08-23T21:59:45.856Z,99112.25
2022-08-23T22:02:14.574Z,99102.34
2022-08-23T22:04:45.133Z,99107.19
2022-08-23T22:07:17.551Z,99109.91
2022-08-23T22:09:45.878Z,99105.78
2022-08-23T22:12:14.977Z,99105.97
2022-08-23T22:14:45.189Z,99103.34
2022-08-23T22:17:16.457Z,99109.69
2022-08-23T22:19:45.110Z,99110.09
2022-08-23T22:22:15.506Z,99111.41
2022-08-23T22:24:43.958Z,99121.66
2022-08-23T22:27:13.431Z,99119.31
2022-08-23T22:29:42.808Z,99128.66
2022-08-23T22:32:15.114Z,99129.88
2022-08-23T22:34:43.975Z,99128.09
2022-08-23T22:37:12.498Z,99131.00
2022-08-23T22:39:43.414Z,99130.50
2022-08-23T22:42:13.953Z,99121.66
2022-08-23T22:44:42.658Z,99120.44
2022-08-23T22:47:11.100Z,99128.47
2022-08-23T22:49:40.419Z,99125.84
2022-08-23T22:52:12.748Z,99123.75
2022-08-23T22:54:42.675Z,99124.97
2022-08-23T22:57:11.279Z,99125.34
2022-08-23T22:59:40.828Z,99122.09
2022-08-23T23:02:10.393Z,99125.34
2022-08-23T23:04:41.051Z,99125.53
2022-08-23T23:07:09.599Z,99119.94
2022-08-23T23:09:38.069Z,99127.03
2022-08-23T23:12:08.187Z,99126.84
2022-08-23T23:14:37.243Z,99132.72
2022-08-23T23:17:12.607Z,99140.25
2022-08-23T23:19:58.694Z,99134.19
2022-08-23T23:22:27.814Z,99140.97
2022-08-23T23:24:56.349Z,99144.25
2022-08-23T23:27:26.078Z,99138.47
2022-08-23T23:29:54.417Z,99136.53
2022-08-23T23:32:22.923Z,99130.97
2022-08-23T23:34:51.815Z,99139.19
2022-08-23T23:37:22.359Z,99132.66
2022-08-23T23:39:52.452Z,99141.13
2022-08-23T23:42:20.739Z,99150.84
2022-08-23T23:44:50.586Z,99148.38
2022-08-23T23:47:19.619Z,99144.50
2022-08-23T23:49:48.463Z,99150.47
2022-08-23T23:52:19.056Z,99141.28
2022-08-23T23:54:48.089Z,99140.72
2022-08-23T23:57:16.477Z,99146.22
2022-08-23T23:59:45.496Z,99139.28
